sensor_id;sensor_type;location;lat;lon;timestamp;temperature;humidity
55777;DHT22;54079;44.540;18.784;2023-07-31T00:02:16;20.90;99.90
55777;DHT22;54079;44.540;18.784;2023-07-31T00:04:42;20.70;99.90
55777;DHT22;54079;44.540;18.784;2023-07-31T00:07:08;21.00;99.90
55777;DHT22;54079;44.540;18.784;2023-07-31T00:09:34;21.00;99.90
55777;DHT22;54079;44.540;18.784;2023-07-31T00:12:00;21.10;99.90
55777;DHT22;54079;44.540;18.784;2023-07-31T00:14:26;21.30;99.90
55777;DHT22;54079;44.540;18.784;2023-07-31T00:16:52;21.30;99.90
55777;DHT22;54079;44.540;18.784;2023-07-31T00:19:18;21.20;99.90
55777;DHT22;54079;44.540;18.784;2023-07-31T00:21:44;21.20;99.90
55777;DHT22;54079;44.540;18.784;2023-07-31T00:24:10;21.20;99.90
55777;DHT22;54079;44.540;18.784;2023-07-31T00:26:36;21.10;99.90
55777;DHT22;54079;44.540;18.784;2023-07-31T00:29:02;21.00;99.90
55777;DHT22;54079;44.540;18.784;2023-07-31T00:31:28;21.20;99.90
55777;DHT22;54079;44.540;18.784;2023-07-31T00:33:54;21.30;99.90
55777;DHT22;54079;44.540;18.784;2023-07-31T00:36:20;21.30;99.90
55777;DHT22;54079;44.540;18.784;2023-07-31T00:38:46;21.30;99.90
55777;DHT22;54079;44.540;18.784;2023-07-31T00:41:12;21.10;99.90
55777;DHT22;54079;44.540;18.784;2023-07-31T00:43:37;20.80;99.90
55777;DHT22;54079;44.540;18.784;2023-07-31T00:46:03;20.80;99.90
55777;DHT22;54079;44.540;18.784;2023-07-31T00:48:30;20.90;99.90
55777;DHT22;54079;44.540;18.784;2023-07-31T00:50:56;20.90;99.90
55777;DHT22;54079;44.540;18.784;2023-07-31T00:53:22;21.00;99.90
55777;DHT22;54079;44.540;18.784;2023-07-31T00:55:48;21.00;99.90
55777;DHT22;54079;44.540;18.784;2023-07-31T00:58:14;21.00;99.90
55777;DHT22;54079;44.540;18.784;2023-07-31T01:00:40;21.00;99.90
55777;DHT22;54079;44.540;18.784;2023-07-31T01:03:06;21.00;99.90
55777;DHT22;54079;44.540;18.784;2023-07-31T01:10:56;20.80;99.90
55777;DHT22;54079;44.540;18.784;2023-07-31T01:13:23;20.70;99.90
55777;DHT22;54079;44.540;18.784;2023-07-31T01:15:49;20.70;99.90
55777;DHT22;54079;44.540;18.784;2023-07-31T01:18:15;20.60;99.90
55777;DHT22;54079;44.540;18.784;2023-07-31T01:20:42;20.60;99.90
55777;DHT22;54079;44.540;18.784;2023-07-31T01:26:03;20.40;99.90
55777;DHT22;54079;44.540;18.784;2023-07-31T01:28:46;20.50;99.90
55777;DHT22;54079;44.540;18.784;2023-07-31T01:31:16;20.70;99.90
55777;DHT22;54079;44.540;18.784;2023-07-31T01:33:42;20.70;99.90
55777;DHT22;54079;44.540;18.784;2023-07-31T01:36:08;21.00;99.90
55777;DHT22;54079;44.540;18.784;2023-07-31T01:38:34;21.20;99.90
55777;DHT22;54079;44.540;18.784;2023-07-31T01:41:00;21.30;99.90
55777;DHT22;54079;44.540;18.784;2023-07-31T01:43:26;21.40;99.90
55777;DHT22;54079;44.540;18.784;2023-07-31T01:45:52;21.30;99.90
55777;DHT22;54079;44.540;18.784;2023-07-31T01:48:17;21.30;99.90
55777;DHT22;54079;44.540;18.784;2023-07-31T01:50:43;21.40;99.90
55777;DHT22;54079;44.540;18.784;2023-07-31T01:53:09;21.50;99.90
55777;DHT22;54079;44.540;18.784;2023-07-31T01:55:37;21.60;99.90
55777;DHT22;54079;44.540;18.784;2023-07-31T01:58:03;21.70;99.90
55777;DHT22;54079;44.540;18.784;2023-07-31T02:00:29;21.80;99.90
55777;DHT22;54079;44.540;18.784;2023-07-31T02:02:55;21.90;99.90
55777;DHT22;54079;44.540;18.784;2023-07-31T02:05:21;21.90;99.90
55777;DHT22;54079;44.540;18.784;2023-07-31T02:07:47;21.90;99.90
55777;DHT22;54079;44.540;18.784;2023-07-31T02:10:13;21.90;99.90
55777;DHT22;54079;44.540;18.784;2023-07-31T02:12:39;21.80;99.90
55777;DHT22;54079;44.540;18.784;2023-07-31T02:15:05;22.00;99.90
55777;DHT22;54079;44.540;18.784;2023-07-31T02:17:31;21.80;99.90
55777;DHT22;54079;44.540;18.784;2023-07-31T02:19:58;21.80;99.90
55777;DHT22;54079;44.540;18.784;2023-07-31T02:22:25;21.80;99.90
55777;DHT22;54079;44.540;18.784;2023-07-31T02:24:55;21.60;99.90
55777;DHT22;54079;44.540;18.784;2023-07-31T02:27:22;21.70;99.90
55777;DHT22;54079;44.540;18.784;2023-07-31T02:29:54;21.80;99.90
55777;DHT22;54079;44.540;18.784;2023-07-31T02:32:20;21.90;99.90
55777;DHT22;54079;44.540;18.784;2023-07-31T02:34:46;22.00;99.90
55777;DHT22;54079;44.540;18.784;2023-07-31T02:37:14;21.90;99.90
55777;DHT22;54079;44.540;18.784;2023-07-31T02:39:43;21.90;99.90
55777;DHT22;54079;44.540;18.784;2023-07-31T02:42:11;21.50;99.90
55777;DHT22;54079;44.540;18.784;2023-07-31T02:44:37;21.50;99.90
55777;DHT22;54079;44.540;18.784;2023-07-31T02:47:06;21.70;99.90
55777;DHT22;54079;44.540;18.784;2023-07-31T02:49:32;21.90;99.90
55777;DHT22;54079;44.540;18.784;2023-07-31T02:52:11;22.00;99.90
55777;DHT22;54079;44.540;18.784;2023-07-31T02:54:37;22.10;99.90
55777;DHT22;54079;44.540;18.784;2023-07-31T02:57:09;22.10;99.90
55777;DHT22;54079;44.540;18.784;2023-07-31T02:59:36;22.10;99.90
55777;DHT22;54079;44.540;18.784;2023-07-31T03:02:02;22.10;99.90
55777;DHT22;54079;44.540;18.784;2023-07-31T03:04:29;22.20;99.90
55777;DHT22;54079;44.540;18.784;2023-07-31T03:06:58;22.00;99.90
55777;DHT22;54079;44.540;18.784;2023-07-31T03:09:24;22.10;99.90
55777;DHT22;54079;44.540;18.784;2023-07-31T03:11:50;22.00;99.90
55777;DHT22;54079;44.540;18.784;2023-07-31T03:14:16;22.10;99.90
55777;DHT22;54079;44.540;18.784;2023-07-31T03:16:44;22.10;99.90
55777;DHT22;54079;44.540;18.784;2023-07-31T03:19:11;21.90;99.90
55777;DHT22;54079;44.540;18.784;2023-07-31T03:21:40;21.70;99.90
55777;DHT22;54079;44.540;18.784;2023-07-31T03:24:12;21.70;99.90
55777;DHT22;54079;44.540;18.784;2023-07-31T03:26:38;21.90;99.90
55777;DHT22;54079;44.540;18.784;2023-07-31T03:29:09;21.90;99.90
55777;DHT22;54079;44.540;18.784;2023-07-31T03:31:35;21.80;99.90
55777;DHT22;54079;44.540;18.784;2023-07-31T03:34:01;21.80;99.90
55777;DHT22;54079;44.540;18.784;2023-07-31T03:36:27;21.70;99.90
55777;DHT22;54079;44.540;18.784;2023-07-31T03:38:53;21.80;99.90
55777;DHT22;54079;44.540;18.784;2023-07-31T03:41:26;21.90;99.90
55777;DHT22;54079;44.540;18.784;2023-07-31T03:44:00;21.80;99.90
55777;DHT22;54079;44.540;18.784;2023-07-31T03:46:29;21.60;99.90
55777;DHT22;54079;44.540;18.784;2023-07-31T03:48:59;21.70;99.90
55777;DHT22;54079;44.540;18.784;2023-07-31T03:51:25;21.80;99.90
55777;DHT22;54079;44.540;18.784;2023-07-31T03:53:55;21.90;99.90
55777;DHT22;54079;44.540;18.784;2023-07-31T03:56:21;21.70;99.90
55777;DHT22;54079;44.540;18.784;2023-07-31T03:58:48;21.70;99.90
55777;DHT22;54079;44.540;18.784;2023-07-31T04:01:14;21.70;99.90
55777;DHT22;54079;44.540;18.784;2023-07-31T04:03:39;21.80;99.90
55777;DHT22;54079;44.540;18.784;2023-07-31T04:06:05;21.90;99.90
55777;DHT22;54079;44.540;18.784;2023-07-31T04:08:32;21.90;99.90
55777;DHT22;54079;44.540;18.784;2023-07-31T04:10:58;22.00;99.90
55777;DHT22;54079;44.540;18.784;2023-07-31T04:13:25;22.10;99.90
55777;DHT22;54079;44.540;18.784;2023-07-31T04:15:54;22.20;99.90
55777;DHT22;54079;44.540;18.784;2023-07-31T04:18:20;22.30;99.60
55777;DHT22;54079;44.540;18.784;2023-07-31T04:20:46;22.30;99.40
55777;DHT22;54079;44.540;18.784;2023-07-31T04:23:12;22.30;99.40
55777;DHT22;54079;44.540;18.784;2023-07-31T04:25:38;22.30;99.40
55777;DHT22;54079;44.540;18.784;2023-07-31T04:28:04;22.50;98.80
55777;DHT22;54079;44.540;18.784;2023-07-31T04:30:30;22.50;98.50
55777;DHT22;54079;44.540;18.784;2023-07-31T04:32:56;22.40;99.10
55777;DHT22;54079;44.540;18.784;2023-07-31T04:35:21;22.50;99.10
55777;DHT22;54079;44.540;18.784;2023-07-31T04:37:47;22.60;99.00
55777;DHT22;54079;44.540;18.784;2023-07-31T04:40:15;22.70;98.40
55777;DHT22;54079;44.540;18.784;2023-07-31T04:42:41;22.80;97.90
55777;DHT22;54079;44.540;18.784;2023-07-31T04:45:08;22.80;97.90
55777;DHT22;54079;44.540;18.784;2023-07-31T04:47:35;23.00;97.60
55777;DHT22;54079;44.540;18.784;2023-07-31T04:50:00;23.00;97.00
55777;DHT22;54079;44.540;18.784;2023-07-31T04:52:26;22.50;98.60
55777;DHT22;54079;44.540;18.784;2023-07-31T04:54:54;22.60;99.00
55777;DHT22;54079;44.540;18.784;2023-07-31T04:57:21;22.70;99.00
55777;DHT22;54079;44.540;18.784;2023-07-31T04:59:46;23.00;98.20
55777;DHT22;54079;44.540;18.784;2023-07-31T05:02:12;23.10;97.90
55777;DHT22;54079;44.540;18.784;2023-07-31T05:04:39;23.30;97.50
55777;DHT22;54079;44.540;18.784;2023-07-31T05:07:05;23.40;96.70
55777;DHT22;54079;44.540;18.784;2023-07-31T05:09:31;23.30;96.40
55777;DHT22;54079;44.540;18.784;2023-07-31T05:11:57;23.20;96.50
55777;DHT22;54079;44.540;18.784;2023-07-31T05:14:23;23.30;96.40
55777;DHT22;54079;44.540;18.784;2023-07-31T05:16:49;23.30;96.20
55777;DHT22;54079;44.540;18.784;2023-07-31T05:19:14;23.60;95.50
55777;DHT22;54079;44.540;18.784;2023-07-31T05:21:40;23.60;95.10
55777;DHT22;54079;44.540;18.784;2023-07-31T05:24:06;23.60;95.10
55777;DHT22;54079;44.540;18.784;2023-07-31T05:26:32;23.70;94.50
55777;DHT22;54079;44.540;18.784;2023-07-31T05:28:58;23.80;94.30
55777;DHT22;54079;44.540;18.784;2023-07-31T05:31:24;24.00;94.00
55777;DHT22;54079;44.540;18.784;2023-07-31T05:33:50;24.80;93.10
55777;DHT22;54079;44.540;18.784;2023-07-31T05:36:29;25.80;91.90
55777;DHT22;54079;44.540;18.784;2023-07-31T05:38:54;27.40;88.90
55777;DHT22;54079;44.540;18.784;2023-07-31T05:41:20;28.10;84.10
55777;DHT22;54079;44.540;18.784;2023-07-31T05:43:46;27.60;82.60
55777;DHT22;54079;44.540;18.784;2023-07-31T05:46:12;27.50;82.10
55777;DHT22;54079;44.540;18.784;2023-07-31T05:48:38;28.10;81.40
55777;DHT22;54079;44.540;18.784;2023-07-31T05:51:04;28.10;79.60
55777;DHT22;54079;44.540;18.784;2023-07-31T05:53:30;28.70;78.60
55777;DHT22;54079;44.540;18.784;2023-07-31T05:55:56;29.00;78.90
55777;DHT22;54079;44.540;18.784;2023-07-31T05:58:22;32.20;75.80
55777;DHT22;54079;44.540;18.784;2023-07-31T06:00:50;35.10;68.60
55777;DHT22;54079;44.540;18.784;2023-07-31T06:03:16;35.80;65.10
55777;DHT22;54079;44.540;18.784;2023-07-31T06:05:41;37.50;62.50
55777;DHT22;54079;44.540;18.784;2023-07-31T06:08:07;38.30;59.40
55777;DHT22;54079;44.540;18.784;2023-07-31T06:10:33;36.70;59.80
55777;DHT22;54079;44.540;18.784;2023-07-31T06:13:00;37.90;58.40
55777;DHT22;54079;44.540;18.784;2023-07-31T06:15:26;38.70;57.90
55777;DHT22;54079;44.540;18.784;2023-07-31T06:17:53;40.00;54.80
55777;DHT22;54079;44.540;18.784;2023-07-31T06:20:27;40.80;54.20
55777;DHT22;54079;44.540;18.784;2023-07-31T06:22:54;41.10;51.90
55777;DHT22;54079;44.540;18.784;2023-07-31T06:25:20;40.20;52.20
55777;DHT22;54079;44.540;18.784;2023-07-31T06:27:47;41.60;51.70
55777;DHT22;54079;44.540;18.784;2023-07-31T06:30:13;41.10;50.60
55777;DHT22;54079;44.540;18.784;2023-07-31T06:32:38;38.20;53.10
55777;DHT22;54079;44.540;18.784;2023-07-31T06:35:06;36.10;55.40
55777;DHT22;54079;44.540;18.784;2023-07-31T06:37:32;34.90;57.20
55777;DHT22;54079;44.540;18.784;2023-07-31T06:39:58;33.90;58.20
55777;DHT22;54079;44.540;18.784;2023-07-31T06:42:24;33.30;59.70
55777;DHT22;54079;44.540;18.784;2023-07-31T06:44:50;32.30;61.50
55777;DHT22;54079;44.540;18.784;2023-07-31T06:47:16;31.90;62.10
55777;DHT22;54079;44.540;18.784;2023-07-31T06:49:42;31.10;61.30
55777;DHT22;54079;44.540;18.784;2023-07-31T06:52:08;30.90;59.80
55777;DHT22;54079;44.540;18.784;2023-07-31T06:54:35;32.70;57.30
55777;DHT22;54079;44.540;18.784;2023-07-31T06:57:01;33.60;56.20
55777;DHT22;54079;44.540;18.784;2023-07-31T06:59:27;33.60;56.30
55777;DHT22;54079;44.540;18.784;2023-07-31T07:01:53;35.10;55.50
55777;DHT22;54079;44.540;18.784;2023-07-31T07:04:18;33.90;54.60
55777;DHT22;54079;44.540;18.784;2023-07-31T07:06:45;33.00;56.20
55777;DHT22;54079;44.540;18.784;2023-07-31T07:09:11;32.50;57.50
55777;DHT22;54079;44.540;18.784;2023-07-31T07:11:37;32.10;56.60
55777;DHT22;54079;44.540;18.784;2023-07-31T07:14:03;37.20;53.20
55777;DHT22;54079;44.540;18.784;2023-07-31T07:16:29;36.60;52.10
55777;DHT22;54079;44.540;18.784;2023-07-31T07:18:55;37.20;51.70
55777;DHT22;54079;44.540;18.784;2023-07-31T07:21:21;37.70;49.50
55777;DHT22;54079;44.540;18.784;2023-07-31T07:23:47;36.20;51.20
55777;DHT22;54079;44.540;18.784;2023-07-31T07:26:13;35.40;52.70
55777;DHT22;54079;44.540;18.784;2023-07-31T07:28:39;35.30;52.90
55777;DHT22;54079;44.540;18.784;2023-07-31T07:31:04;33.70;54.70
55777;DHT22;54079;44.540;18.784;2023-07-31T07:33:30;32.50;56.20
55777;DHT22;54079;44.540;18.784;2023-07-31T07:36:00;32.40;56.30
55777;DHT22;54079;44.540;18.784;2023-07-31T07:38:27;33.80;54.90
55777;DHT22;54079;44.540;18.784;2023-07-31T07:40:53;34.80;54.30
55777;DHT22;54079;44.540;18.784;2023-07-31T07:43:19;35.40;53.50
55777;DHT22;54079;44.540;18.784;2023-07-31T07:45:45;34.60;53.60
55777;DHT22;54079;44.540;18.784;2023-07-31T07:48:11;33.10;54.20
55777;DHT22;54079;44.540;18.784;2023-07-31T07:50:38;32.30;55.20
55777;DHT22;54079;44.540;18.784;2023-07-31T07:53:05;32.50;56.80
55777;DHT22;54079;44.540;18.784;2023-07-31T07:55:31;32.90;56.00
55777;DHT22;54079;44.540;18.784;2023-07-31T07:57:56;34.70;54.80
55777;DHT22;54079;44.540;18.784;2023-07-31T08:00:22;36.90;51.90
55777;DHT22;54079;44.540;18.784;2023-07-31T08:02:48;37.60;50.40
55777;DHT22;54079;44.540;18.784;2023-07-31T08:05:14;39.90;48.60
55777;DHT22;54079;44.540;18.784;2023-07-31T08:07:40;40.50;45.00
55777;DHT22;54079;44.540;18.784;2023-07-31T08:10:06;40.10;47.10
55777;DHT22;54079;44.540;18.784;2023-07-31T08:12:32;41.20;45.40
55777;DHT22;54079;44.540;18.784;2023-07-31T08:14:58;38.60;46.50
55777;DHT22;54079;44.540;18.784;2023-07-31T08:17:25;40.00;46.80
55777;DHT22;54079;44.540;18.784;2023-07-31T08:19:51;41.20;45.10
55777;DHT22;54079;44.540;18.784;2023-07-31T08:22:17;42.30;43.70
55777;DHT22;54079;44.540;18.784;2023-07-31T08:24:43;41.20;42.70
55777;DHT22;54079;44.540;18.784;2023-07-31T08:27:09;41.50;43.70
55777;DHT22;54079;44.540;18.784;2023-07-31T08:29:35;43.40;43.20
55777;DHT22;54079;44.540;18.784;2023-07-31T08:32:01;44.60;42.80
55777;DHT22;54079;44.540;18.784;2023-07-31T08:34:27;44.30;41.30
55777;DHT22;54079;44.540;18.784;2023-07-31T08:36:52;42.00;42.10
55777;DHT22;54079;44.540;18.784;2023-07-31T08:39:18;43.80;42.90
55777;DHT22;54079;44.540;18.784;2023-07-31T08:41:44;41.90;43.80
55777;DHT22;54079;44.540;18.784;2023-07-31T08:44:10;43.30;41.70
55777;DHT22;54079;44.540;18.784;2023-07-31T08:46:38;46.30;40.60
55777;DHT22;54079;44.540;18.784;2023-07-31T08:49:07;47.60;40.00
55777;DHT22;54079;44.540;18.784;2023-07-31T08:51:37;47.30;38.80
55777;DHT22;54079;44.540;18.784;2023-07-31T08:54:03;46.70;39.20
55777;DHT22;54079;44.540;18.784;2023-07-31T08:56:31;45.60;39.90
55777;DHT22;54079;44.540;18.784;2023-07-31T08:58:58;45.40;40.10
55777;DHT22;54079;44.540;18.784;2023-07-31T09:01:26;44.40;40.10
55777;DHT22;54079;44.540;18.784;2023-07-31T09:03:55;45.40;39.80
55777;DHT22;54079;44.540;18.784;2023-07-31T09:06:23;45.80;39.80
55777;DHT22;54079;44.540;18.784;2023-07-31T09:08:49;44.00;38.80
55777;DHT22;54079;44.540;18.784;2023-07-31T09:11:15;44.10;40.30
55777;DHT22;54079;44.540;18.784;2023-07-31T09:13:42;44.30;39.10
55777;DHT22;54079;44.540;18.784;2023-07-31T09:16:08;43.80;40.10
55777;DHT22;54079;44.540;18.784;2023-07-31T09:19:08;42.00;41.80
55777;DHT22;54079;44.540;18.784;2023-07-31T09:21:34;39.10;43.80
55777;DHT22;54079;44.540;18.784;2023-07-31T09:24:25;35.80;47.20
55777;DHT22;54079;44.540;18.784;2023-07-31T09:26:54;34.00;49.20
55777;DHT22;54079;44.540;18.784;2023-07-31T09:29:24;32.80;48.30
55777;DHT22;54079;44.540;18.784;2023-07-31T09:31:53;31.70;50.50
55777;DHT22;54079;44.540;18.784;2023-07-31T09:34:19;31.30;52.10
55777;DHT22;54079;44.540;18.784;2023-07-31T09:36:54;30.80;54.50
55777;DHT22;54079;44.540;18.784;2023-07-31T09:39:20;30.70;53.20
55777;DHT22;54079;44.540;18.784;2023-07-31T09:41:56;30.60;52.70
55777;DHT22;54079;44.540;18.784;2023-07-31T09:44:40;30.40;55.20
55777;DHT22;54079;44.540;18.784;2023-07-31T09:47:06;30.10;54.10
55777;DHT22;54079;44.540;18.784;2023-07-31T09:49:32;30.10;54.00
55777;DHT22;54079;44.540;18.784;2023-07-31T09:51:59;29.70;54.90
55777;DHT22;54079;44.540;18.784;2023-07-31T09:54:25;29.10;54.30
55777;DHT22;54079;44.540;18.784;2023-07-31T09:56:51;29.00;56.00
55777;DHT22;54079;44.540;18.784;2023-07-31T09:59:19;29.20;54.80
55777;DHT22;54079;44.540;18.784;2023-07-31T10:01:46;29.00;55.80
55777;DHT22;54079;44.540;18.784;2023-07-31T10:04:13;29.10;53.40
55777;DHT22;54079;44.540;18.784;2023-07-31T10:06:40;29.20;52.10
55777;DHT22;54079;44.540;18.784;2023-07-31T10:09:09;29.20;52.90
55777;DHT22;54079;44.540;18.784;2023-07-31T10:11:53;28.90;50.80
55777;DHT22;54079;44.540;18.784;2023-07-31T10:14:21;28.80;53.40
55777;DHT22;54079;44.540;18.784;2023-07-31T10:16:49;28.70;53.10
55777;DHT22;54079;44.540;18.784;2023-07-31T10:19:17;29.10;52.80
55777;DHT22;54079;44.540;18.784;2023-07-31T10:21:43;29.10;52.90
55777;DHT22;54079;44.540;18.784;2023-07-31T10:24:10;29.10;52.50
55777;DHT22;54079;44.540;18.784;2023-07-31T10:26:38;28.90;53.20
55777;DHT22;54079;44.540;18.784;2023-07-31T10:29:05;29.00;52.90
55777;DHT22;54079;44.540;18.784;2023-07-31T10:31:32;29.20;52.80
55777;DHT22;54079;44.540;18.784;2023-07-31T10:34:00;29.20;53.00
55777;DHT22;54079;44.540;18.784;2023-07-31T10:36:26;29.40;52.80
55777;DHT22;54079;44.540;18.784;2023-07-31T10:38:52;29.40;52.50
55777;DHT22;54079;44.540;18.784;2023-07-31T10:41:31;29.40;52.30
55777;DHT22;54079;44.540;18.784;2023-07-31T10:43:58;29.30;50.50
55777;DHT22;54079;44.540;18.784;2023-07-31T10:46:24;29.30;53.30
55777;DHT22;54079;44.540;18.784;2023-07-31T10:48:58;29.50;52.40
55777;DHT22;54079;44.540;18.784;2023-07-31T10:51:35;29.30;51.20
55777;DHT22;54079;44.540;18.784;2023-07-31T10:54:15;29.20;51.10
55777;DHT22;54079;44.540;18.784;2023-07-31T10:56:45;29.80;52.20
55777;DHT22;54079;44.540;18.784;2023-07-31T10:59:12;29.70;51.40
55777;DHT22;54079;44.540;18.784;2023-07-31T11:01:53;29.60;51.80
55777;DHT22;54079;44.540;18.784;2023-07-31T11:04:24;29.70;51.80
55777;DHT22;54079;44.540;18.784;2023-07-31T11:07:01;29.60;52.20
55777;DHT22;54079;44.540;18.784;2023-07-31T11:09:30;29.90;52.00
55777;DHT22;54079;44.540;18.784;2023-07-31T11:11:58;30.10;50.20
55777;DHT22;54079;44.540;18.784;2023-07-31T11:14:24;29.90;51.90
55777;DHT22;54079;44.540;18.784;2023-07-31T11:16:51;29.60;51.10
55777;DHT22;54079;44.540;18.784;2023-07-31T11:19:24;29.70;51.50
55777;DHT22;54079;44.540;18.784;2023-07-31T11:21:53;29.90;51.90
55777;DHT22;54079;44.540;18.784;2023-07-31T11:24:19;29.80;53.20
55777;DHT22;54079;44.540;18.784;2023-07-31T11:26:52;29.50;53.10
55777;DHT22;54079;44.540;18.784;2023-07-31T11:29:19;29.70;52.50
55777;DHT22;54079;44.540;18.784;2023-07-31T11:31:47;30.00;51.20
55777;DHT22;54079;44.540;18.784;2023-07-31T11:34:15;29.70;51.40
55777;DHT22;54079;44.540;18.784;2023-07-31T11:36:55;29.70;50.10
55777;DHT22;54079;44.540;18.784;2023-07-31T11:39:21;29.80;50.50
55777;DHT22;54079;44.540;18.784;2023-07-31T11:41:47;30.00;48.30
55777;DHT22;54079;44.540;18.784;2023-07-31T11:44:13;29.90;51.70
55777;DHT22;54079;44.540;18.784;2023-07-31T11:46:39;29.80;50.50
55777;DHT22;54079;44.540;18.784;2023-07-31T11:49:05;29.50;51.20
55777;DHT22;54079;44.540;18.784;2023-07-31T11:51:31;29.80;52.50
55777;DHT22;54079;44.540;18.784;2023-07-31T11:54:00;29.70;51.50
55777;DHT22;54079;44.540;18.784;2023-07-31T11:56:26;29.80;52.20
55777;DHT22;54079;44.540;18.784;2023-07-31T11:58:59;29.50;51.70
55777;DHT22;54079;44.540;18.784;2023-07-31T12:01:28;29.10;51.90
55777;DHT22;54079;44.540;18.784;2023-07-31T12:03:54;28.80;52.10
55777;DHT22;54079;44.540;18.784;2023-07-31T12:06:21;28.90;50.70
55777;DHT22;54079;44.540;18.784;2023-07-31T12:08:47;29.10;51.90
55777;DHT22;54079;44.540;18.784;2023-07-31T12:11:14;28.90;51.30
55777;DHT22;54079;44.540;18.784;2023-07-31T12:13:40;29.00;51.80
55777;DHT22;54079;44.540;18.784;2023-07-31T12:16:06;29.20;51.60
55777;DHT22;54079;44.540;18.784;2023-07-31T12:18:37;29.50;51.70
55777;DHT22;54079;44.540;18.784;2023-07-31T12:21:06;29.90;51.50
55777;DHT22;54079;44.540;18.784;2023-07-31T12:23:33;29.70;52.90
55777;DHT22;54079;44.540;18.784;2023-07-31T12:26:03;29.60;50.40
55777;DHT22;54079;44.540;18.784;2023-07-31T12:28:34;29.30;51.60
55777;DHT22;54079;44.540;18.784;2023-07-31T12:31:01;28.80;51.40
55777;DHT22;54079;44.540;18.784;2023-07-31T12:33:37;28.70;50.60
55777;DHT22;54079;44.540;18.784;2023-07-31T12:36:10;28.70;51.80
55777;DHT22;54079;44.540;18.784;2023-07-31T12:38:37;28.80;51.20
55777;DHT22;54079;44.540;18.784;2023-07-31T12:41:03;29.10;51.60
55777;DHT22;54079;44.540;18.784;2023-07-31T12:43:29;29.40;50.80
55777;DHT22;54079;44.540;18.784;2023-07-31T12:45:56;29.00;48.80
55777;DHT22;54079;44.540;18.784;2023-07-31T12:48:22;29.20;50.50
55777;DHT22;54079;44.540;18.784;2023-07-31T12:50:48;29.10;50.50
55777;DHT22;54079;44.540;18.784;2023-07-31T12:53:15;29.10;50.30
55777;DHT22;54079;44.540;18.784;2023-07-31T12:55:41;29.10;50.10
55777;DHT22;54079;44.540;18.784;2023-07-31T12:58:07;28.90;51.70
55777;DHT22;54079;44.540;18.784;2023-07-31T13:00:32;28.80;51.30
55777;DHT22;54079;44.540;18.784;2023-07-31T13:02:59;29.20;50.70
55777;DHT22;54079;44.540;18.784;2023-07-31T13:05:26;29.50;52.10
55777;DHT22;54079;44.540;18.784;2023-07-31T13:07:52;29.90;50.00
55777;DHT22;54079;44.540;18.784;2023-07-31T13:10:18;30.30;50.90
55777;DHT22;54079;44.540;18.784;2023-07-31T13:12:44;30.10;49.80
55777;DHT22;54079;44.540;18.784;2023-07-31T13:15:10;30.10;50.10
55777;DHT22;54079;44.540;18.784;2023-07-31T13:17:36;30.10;50.20
55777;DHT22;54079;44.540;18.784;2023-07-31T13:20:03;30.30;52.00
55777;DHT22;54079;44.540;18.784;2023-07-31T13:22:29;30.10;50.20
55777;DHT22;54079;44.540;18.784;2023-07-31T13:24:55;30.40;51.70
55777;DHT22;54079;44.540;18.784;2023-07-31T13:27:21;29.90;49.50
55777;DHT22;54079;44.540;18.784;2023-07-31T13:29:48;30.30;50.50
55777;DHT22;54079;44.540;18.784;2023-07-31T13:32:16;30.40;50.10
55777;DHT22;54079;44.540;18.784;2023-07-31T13:34:43;29.80;50.60
55777;DHT22;54079;44.540;18.784;2023-07-31T13:37:08;30.20;51.60
55777;DHT22;54079;44.540;18.784;2023-07-31T13:39:35;29.90;50.50
55777;DHT22;54079;44.540;18.784;2023-07-31T13:42:02;29.90;50.00
55777;DHT22;54079;44.540;18.784;2023-07-31T13:44:29;29.90;51.50
55777;DHT22;54079;44.540;18.784;2023-07-31T13:46:54;29.90;49.40
55777;DHT22;54079;44.540;18.784;2023-07-31T13:49:20;29.80;51.50
55777;DHT22;54079;44.540;18.784;2023-07-31T13:51:46;29.90;51.20
55777;DHT22;54079;44.540;18.784;2023-07-31T13:54:12;30.00;50.80
55777;DHT22;54079;44.540;18.784;2023-07-31T13:56:39;30.20;51.20
55777;DHT22;54079;44.540;18.784;2023-07-31T13:59:05;30.30;49.70
55777;DHT22;54079;44.540;18.784;2023-07-31T14:01:31;30.10;51.20
55777;DHT22;54079;44.540;18.784;2023-07-31T14:03:57;29.90;50.10
55777;DHT22;54079;44.540;18.784;2023-07-31T14:06:23;30.10;52.30
55777;DHT22;54079;44.540;18.784;2023-07-31T14:08:49;30.20;50.10
55777;DHT22;54079;44.540;18.784;2023-07-31T14:11:15;30.50;50.70
55777;DHT22;54079;44.540;18.784;2023-07-31T14:13:41;30.70;50.20
55777;DHT22;54079;44.540;18.784;2023-07-31T14:16:07;30.80;49.80
55777;DHT22;54079;44.540;18.784;2023-07-31T14:18:32;30.90;49.70
55777;DHT22;54079;44.540;18.784;2023-07-31T14:20:58;30.60;49.90
55777;DHT22;54079;44.540;18.784;2023-07-31T14:23:24;30.30;51.20
55777;DHT22;54079;44.540;18.784;2023-07-31T14:25:50;29.90;50.10
55777;DHT22;54079;44.540;18.784;2023-07-31T14:28:16;29.60;50.80
55777;DHT22;54079;44.540;18.784;2023-07-31T14:30:42;29.50;49.00
55777;DHT22;54079;44.540;18.784;2023-07-31T14:33:08;29.50;50.10
55777;DHT22;54079;44.540;18.784;2023-07-31T14:35:35;29.60;50.40
55777;DHT22;54079;44.540;18.784;2023-07-31T14:38:01;29.60;48.30
55777;DHT22;54079;44.540;18.784;2023-07-31T14:40:27;29.40;47.50
55777;DHT22;54079;44.540;18.784;2023-07-31T14:42:53;29.90;49.10
55777;DHT22;54079;44.540;18.784;2023-07-31T14:45:19;30.20;49.00
55777;DHT22;54079;44.540;18.784;2023-07-31T14:47:45;30.10;50.00
55777;DHT22;54079;44.540;18.784;2023-07-31T14:50:10;30.10;50.90
55777;DHT22;54079;44.540;18.784;2023-07-31T14:52:37;29.90;51.30
55777;DHT22;54079;44.540;18.784;2023-07-31T14:55:03;29.50;51.60
55777;DHT22;54079;44.540;18.784;2023-07-31T14:57:29;29.70;53.40
55777;DHT22;54079;44.540;18.784;2023-07-31T14:59:55;29.70;51.60
55777;DHT22;54079;44.540;18.784;2023-07-31T15:02:21;29.70;51.20
55777;DHT22;54079;44.540;18.784;2023-07-31T15:04:46;29.80;52.50
55777;DHT22;54079;44.540;18.784;2023-07-31T15:07:12;29.40;50.50
55777;DHT22;54079;44.540;18.784;2023-07-31T15:09:39;29.50;52.00
55777;DHT22;54079;44.540;18.784;2023-07-31T15:12:05;29.60;51.10
55777;DHT22;54079;44.540;18.784;2023-07-31T15:14:31;29.70;51.30
55777;DHT22;54079;44.540;18.784;2023-07-31T15:16:58;29.70;53.70
55777;DHT22;54079;44.540;18.784;2023-07-31T15:19:24;29.80;51.30
55777;DHT22;54079;44.540;18.784;2023-07-31T15:21:50;29.70;50.80
55777;DHT22;54079;44.540;18.784;2023-07-31T15:24:16;29.70;51.00